Tempos de volta de RENTAL PROVA 6 - 20:30
KARTODROMO INTERNACIONAL GRANJA VIANA a funcionar KGV RACE TRACKS - CIRCUITO 121
Tempos de volta de RENTAL - PROVA 6 - 20:30


Hora do dia Volta Volta do Líder Volta Tm Velocidade
153 - MARCOS BARONE - 4 TEMPOS
20:35:33.283 1 1 44.067 65,355
20:36:13.273 2 2 39.990 72,018
20:36:52.676 3 3 39.403 73,091
20:37:31.691 4 4 39.015 73,818
20:38:10.765 5 5 39.074 73,706
20:38:49.816 6 6 39.051 73,750
20:39:29.156 7 7 39.340 73,208
20:40:08.299 8 8 39.143 73,576
20:40:47.269 9 9 38.970 73,903
20:41:26.399 10 10 39.130 73,601
20:42:05.521 11 11 39.122 73,616
20:42:44.681 12 12 39.160 73,544
20:43:23.817 13 13 39.136 73,590
20:44:03.074 14 14 39.257 73,363
20:44:42.261 15 15 39.187 73,494
20:45:21.533 16 16 39.272 73,335
20:46:00.589 17 17 39.056 73,740
20:46:39.601 18 18 39.012 73,823
20:47:18.685 19 19 39.084 73,687
20:47:57.707 20 20 39.022 73,805
20:48:36.802 21 21 39.095 73,667
20:49:15.782 22 22 38.980 73,884
20:49:54.926 23 23 39.144 73,574
20:50:33.927 24 24 39.001 73,844
20:51:12.895 25 25 38.968 73,907
20:51:51.988 26 26 39.093 73,670
20:52:31.261 27 27 39.273 73,333
20:53:10.404 28 28 39.143 73,576
20:53:49.520 29 29 39.116 73,627
20:54:28.522 30 30 39.002 73,842
20:55:07.648 31 31 39.126 73,608
20:55:46.793 32 32 39.145 73,573
20:56:25.949 33 33 39.156 73,552
20:57:05.055 34 34 39.106 73,646
20:57:44.270 35 35 39.215 73,441
20:58:23.511 36 36 39.241 73,393
20:59:02.657 37 37 39.146 73,571
20:59:42.149 38 38 39.492 72,926
031 - AUGUSTO CHAGAS - 4 TEMPOS
20:35:33.154 1 1 44.155 65,225
20:36:13.010 2 2 39.856 72,260
20:36:52.258 3 3 39.248 73,380
20:37:31.507 4 4 39.249 73,378
20:38:10.550 5 5 39.043 73,765
20:38:49.707 6 6 39.157 73,550
20:39:28.952 7 7 39.245 73,385
20:40:08.150 8 8 39.198 73,473
20:40:47.177 9 9 39.027 73,795
20:41:26.276 10 10 39.099 73,659
20:42:05.361 11 11 39.085 73,686
20:42:44.595 12 12 39.234 73,406
20:43:23.732 13 13 39.137 73,588
20:44:03.406 14 14 39.674 72,592
20:44:42.403 15 15 38.997 73,852
20:45:21.710 16 16 39.307 73,269
20:46:00.832 17 17 39.122 73,616
20:46:39.969 18 18 39.137 73,588
20:47:19.248 19 19 39.279 73,322
20:47:58.417 20 20 39.169 73,528
20:48:37.441 21 21 39.024 73,801
20:49:16.595 22 22 39.154 73,556
20:49:55.520 23 23 38.925 73,988
20:50:34.571 24 24 39.051 73,750
20:51:13.534 25 25 38.963 73,916
20:51:52.790 26 26 39.256 73,365
20:52:31.966 27 27 39.176 73,514
20:53:11.119 28 28 39.153 73,558
20:53:50.225 29 29 39.106 73,646
20:54:29.316 30 30 39.091 73,674
20:55:08.654 31 31 39.338 73,212
20:55:47.924 32 32 39.270 73,338
20:56:27.096 33 33 39.172 73,522
20:57:06.440 34 34 39.344 73,200
20:57:45.760 35 35 39.320 73,245
20:58:25.022 36 36 39.262 73,353
20:59:04.341 37 37 39.319 73,247
20:59:43.804 38 38 39.463 72,980
012 - PAULO ALEX - 4 TEMPOS
20:35:33.616 1 1 43.769 65,800
20:36:13.366 2 2 39.750 72,453
20:36:52.864 3 3 39.498 72,915
20:37:32.073 4 4 39.209 73,453
20:38:11.161 5 5 39.088 73,680
20:38:50.113 6 6 38.952 73,937
20:39:29.356 7 7 39.243 73,389
20:40:08.433 8 8 39.077 73,701
20:40:47.452 9 9 39.019 73,810
20:41:26.578 10 10 39.126 73,608
20:42:05.806 11 11 39.228 73,417
20:42:44.857 12 12 39.051 73,750
20:43:24.018 13 13 39.161 73,543
20:44:03.551 14 14 39.533 72,851
20:44:42.621 15 15 39.070 73,714
20:45:21.824 16 16 39.203 73,464
20:46:00.999 17 17 39.175 73,516
20:46:40.182 18 18 39.183 73,501
20:47:19.370 19 19 39.188 73,492
20:47:58.646 20 20 39.276 73,327
20:48:37.749 21 21 39.103 73,652
20:49:16.798 22 22 39.049 73,753
20:49:55.880 23 23 39.082 73,691
20:50:34.817 24 24 38.937 73,966
20:51:13.902 25 25 39.085 73,686
20:51:52.984 26 26 39.082 73,691
20:52:32.222 27 27 39.238 73,398
20:53:11.483 28 28 39.261 73,355
20:53:50.398 29 29 38.915 74,007
20:54:29.514 30 30 39.116 73,627
20:55:08.840 31 31 39.326 73,234
20:55:48.072 32 32 39.232 73,409
20:56:27.243 33 33 39.171 73,524
20:57:06.706 34 34 39.463 72,980
20:57:45.900 35 35 39.194 73,481
20:58:25.329 36 36 39.429 73,043
20:59:04.554 37 37 39.225 73,423
20:59:44.164 38 38 39.610 72,709
032 - PAULO - 4 TEMPOS
20:35:34.164 1 1 43.628 66,013
20:36:14.607 2 2 40.443 71,211
20:36:54.525 3 3 39.918 72,148
20:37:34.125 4 4 39.600 72,727
20:38:13.610 5 5 39.485 72,939
20:38:53.180 6 6 39.570 72,782
20:39:33.253 7 7 40.073 71,869
20:40:13.559 8 8 40.306 71,453
20:40:53.142 9 9 39.583 72,759
20:41:32.342 10 10 39.200 73,469
20:42:11.752 11 11 39.410 73,078
20:42:50.834 12 12 39.082 73,691
20:43:29.985 13 13 39.151 73,561
20:44:09.563 14 14 39.578 72,768
20:44:48.828 15 15 39.265 73,348
20:45:28.218 16 16 39.390 73,115
20:46:07.875 17 17 39.657 72,623
20:46:46.889 18 18 39.014 73,820
20:47:26.164 19 19 39.275 73,329
20:48:05.300 20 20 39.136 73,590
20:48:44.456 21 21 39.156 73,552
20:49:23.662 22 22 39.206 73,458
20:50:02.880 23 23 39.218 73,436
20:50:41.982 24 24 39.102 73,654
20:51:21.138 25 25 39.156 73,552
20:52:00.195 26 26 39.057 73,738
20:52:39.429 27 27 39.234 73,406
20:53:18.429 28 28 39.000 73,846
20:53:57.823 29 29 39.394 73,108
20:54:37.027 30 30 39.204 73,462
20:55:16.324 31 31 39.297 73,288
20:55:55.557 32 32 39.233 73,408
20:56:34.718 33 33 39.161 73,543
20:57:13.937 34 34 39.219 73,434
20:57:52.955 35 35 39.018 73,812
20:58:32.300 36 36 39.345 73,199
20:59:11.503 37 37 39.203 73,464
20:59:50.673 38 38 39.170 73,526
242 - ALEXANDRE ALBINO - 4 TEMPOS
20:35:34.437 1 1 43.985 65,477
20:36:14.813 2 2 40.376 71,330
20:36:54.651 3 3 39.838 72,293
20:37:34.499 4 4 39.848 72,275
20:38:13.812 5 5 39.313 73,258
20:38:53.294 6 6 39.482 72,945
20:39:32.798 7 7 39.504 72,904
20:40:13.745 8 8 40.947 70,335
20:40:53.303 9 9 39.558 72,804
20:41:32.851 10 10 39.548 72,823
20:42:12.157 11 11 39.306 73,271
20:42:51.473 12 12 39.316 73,253
20:43:30.974 13 13 39.501 72,910
20:44:10.320 14 14 39.346 73,197
20:44:49.628 15 15 39.308 73,268
20:45:28.844 16 16 39.216 73,439
20:46:08.276 17 17 39.432 73,037
20:46:47.630 18 18 39.354 73,182
20:47:26.787 19 19 39.157 73,550
20:48:05.884 20 20 39.097 73,663
20:48:45.316 21 21 39.432 73,037
20:49:24.419 22 22 39.103 73,652
20:50:03.678 23 23 39.259 73,359
20:50:42.740 24 24 39.062 73,729
20:51:22.058 25 25 39.318 73,249
20:52:01.309 26 26 39.251 73,374
20:52:40.471 27 27 39.162 73,541
20:53:19.574 28 28 39.103 73,652
20:53:58.772 29 29 39.198 73,473
20:54:38.013 30 30 39.241 73,393
20:55:17.088 31 31 39.075 73,704
20:55:56.223 32 32 39.135 73,591
20:56:35.478 33 33 39.255 73,366
20:57:14.759 34 34 39.281 73,318
20:57:53.918 35 35 39.159 73,546
20:58:33.274 36 36 39.356 73,178
20:59:12.615 37 37 39.341 73,206
20:59:51.915 38 38 39.300 73,282
077 - RICARDO GIMENEZ - 4 TEMPOS
20:35:34.163 1 1 43.628 66,013
20:36:14.606 2 2 40.443 71,211
20:36:54.524 3 3 39.918 72,148
20:37:34.124 4 4 39.600 72,727
20:38:13.609 5 5 39.485 72,939
20:38:53.179 6 6 39.570 72,782
20:39:33.252 7 7 40.073 71,869
20:40:13.486 8 8 40.234 71,581
20:40:53.031 9 9 39.545 72,828
20:41:32.631 10 10 39.600 72,727
20:42:12.057 11 11 39.426 73,048
20:42:51.357 12 12 39.300 73,282
20:43:31.266 13 13 39.909 72,164
20:44:10.721 14 14 39.455 72,995
20:44:50.240 15 15 39.519 72,876
20:45:29.611 16 16 39.371 73,150
20:46:09.331 17 17 39.720 72,508
20:46:49.127 18 18 39.796 72,369
20:47:28.807 19 19 39.680 72,581
20:48:08.497 20 20 39.690 72,562
20:48:47.951 21 21 39.454 72,996
20:49:27.767 22 22 39.816 72,333
20:50:07.753 23 23 39.986 72,025
20:50:47.555 24 24 39.802 72,358
20:51:27.987 25 25 40.432 71,231
20:52:08.340 26 26 40.353 71,370
20:52:48.258 27 27 39.918 72,148
20:53:28.371 28 28 40.113 71,797
20:54:08.244 29 29 39.873 72,229
20:54:48.052 30 30 39.808 72,347
20:55:27.991 31 31 39.939 72,110
20:56:07.778 32 32 39.787 72,385
20:56:48.024 33 33 40.246 71,560
20:57:28.055 34 34 40.031 71,944
20:58:07.989 35 35 39.934 72,119
20:58:48.332 36 36 40.343 71,388
20:59:28.832 37 37 40.500 71,111
21:00:08.810 38 38 39.978 72,040
144 - DGEISON DE LUCCA - 4 TEMPOS
20:35:35.022 1 1 43.471 66,251
20:36:15.200 2 2 40.178 71,681
20:36:54.810 3 3 39.610 72,709
20:37:34.863 4 4 40.053 71,905
20:38:14.290 5 5 39.427 73,046
20:38:53.423 6 6 39.133 73,595
20:39:32.895 7 7 39.472 72,963
20:40:12.737 8 8 39.842 72,286
20:40:52.101 9 9 39.364 73,163
20:41:31.554 10 10 39.453 72,998
20:42:11.054 11 11 39.500 72,911
20:42:50.435 12 12 39.381 73,132
20:43:29.728 13 13 39.293 73,295
20:44:09.182 14 14 39.454 72,996
20:44:48.702 15 15 39.520 72,874
20:45:28.375 16 16 39.673 72,593
20:46:08.184 17 17 39.809 72,345
20:46:47.287 18 18 39.103 73,652
20:47:26.445 19 19 39.158 73,548
20:48:05.661 20 20 39.216 73,439
20:48:44.963 21 21 39.302 73,279
20:49:24.160 22 22 39.197 73,475
20:50:03.321 23 23 39.161 73,543
20:50:42.453 24 24 39.132 73,597
20:51:21.405 25 25 38.952 73,937
20:52:00.553 26 26 39.148 73,567
20:52:39.655 27 27 39.102 73,654
20:53:18.611 28 28 38.956 73,930
20:53:58.157 29 29 39.546 72,827
20:54:37.209 30 30 39.052 73,748
20:55:16.562 31 31 39.353 73,184
20:55:55.940 32 32 39.378 73,137
20:56:35.092 33 33 39.152 73,559
20:57:14.271 34 34 39.179 73,509
20:57:53.580 35 35 39.309 73,266
20:58:33.196 36 36 39.616 72,698
243 - RODRIGO - 4 TEMPOS
20:35:41.307 1 1 50.254 57,309
20:36:21.675 2 2 40.368 71,344
20:37:01.588 3 3 39.913 72,157
20:37:41.442 4 4 39.854 72,264
20:38:21.208 5 5 39.766 72,424
20:39:00.898 6 6 39.690 72,562
20:39:40.530 7 7 39.632 72,669
20:40:20.113 8 8 39.583 72,759
20:40:59.769 9 9 39.656 72,625
20:41:39.815 10 10 40.046 71,917
20:42:19.785 11 11 39.970 72,054
20:42:59.504 12 12 39.719 72,509
20:43:39.130 13 13 39.626 72,680
20:44:18.727 14 14 39.597 72,733
20:44:58.264 15 15 39.537 72,843
20:45:37.982 16 16 39.718 72,511
20:46:17.772 17 17 39.790 72,380
20:46:58.083 18 18 40.311 71,445
20:47:37.987 19 19 39.904 72,173
20:48:17.831 20 20 39.844 72,282
20:48:57.833 21 21 40.002 71,996
20:49:37.693 22 22 39.860 72,253
20:50:17.666 23 23 39.973 72,049
20:50:57.627 24 24 39.961 72,070
20:51:37.749 25 25 40.122 71,781
20:52:18.000 26 26 40.251 71,551
20:53:01.868 27 27 43.868 65,651
022 - DANILO PACINI - 4 TEMPOS
20:35:37.873 1 1 46.179 62,366
20:36:20.191 2 2 42.318 68,056
20:37:05.453 3 3 45.262 63,630
20:37:47.560 4 4 42.107 68,397
20:38:32.521 5 5 44.961 64,056
20:39:15.004 6 6 42.483 67,792
20:39:56.614 7 7 41.610 69,214
20:40:38.739 8 8 42.125 68,368
20:41:20.228 9 9 41.489 69,416
20:41:49.838 10 10 29.610 97,264
20:44:45.580 11 15 2:55.742 16,388
20:45:26.930 12 16 41.350 69,649
20:46:10.128 13 17 43.198 66,670
20:46:51.385 14 18 41.257 69,806
20:47:32.461 15 19 41.076 70,114
20:48:13.366 16 20 40.905 70,407
20:48:54.363 17 21 40.997 70,249
20:49:35.485 18 22 41.122 70,036
20:50:16.533 19 23 41.048 70,162
20:50:57.514 20 24 40.981 70,276
20:51:43.197 21 25 45.683 63,043
035 - ALEXANDRE CURY - 4 TEMPOS
20:35:43.934 1 1 53.601 53,730
20:36:24.937 2 2 41.003 70,239
20:37:05.661 3 3 40.724 70,720
20:37:46.037 4 4 40.376 71,330
20:38:37.034 5 5 50.997 56,474
Gerada em 13/09/2021 21:24